PWSweather.com
Personal Weather Stations
Station Observations
KILMORRI1
Goose Lake, Morris, IL 60450

Goose LakeMorris, IL 60450

Lat: 41.34, Lon: -88.3

Elevation: 523

Station Type:

www.gooselakeweather.com

High Low Average
Temperature 77.9°F25.5°C 64.0°F17.8°C 72.4°F22.4°C
Dew Point 69.2°F20.7°C 58.4°F14.7°C 63.2°F17.3°C
Winds 13.8 mph 22.2 kmh Calm Calm 5.0 mph WSW8.0 kmh WSW
Wind Gusts 20.7 mph33.3 kmh 1.2 mph1.9 kmh 9.0 mph14.5 kmh
Humidity 95% 54% 74%
Pressure 29.76 in1007.8 mb 29.51 in999.3 mb -
Precipitation 0.00 in0.0 mm - -
Hour Temp Dew Point Humidity Winds Wind Gusts Pressure Precip Precip Rate Daily Precip Total
12:00 AM 70.4°F21.3°C 68.6°F20.3°C 94% 4.6 mph SW7.4 kmh SW 6.9 mph11.1 kmh 29.55 in1000.7 mb - 0.00 in0.0 mm 0.00 in0.0 mm
12:10 AM 70.3°F21.3°C 68.5°F20.3°C 94% 3.5 mph SSW5.6 kmh SSW 6.9 mph11.1 kmh 29.55 in1000.7 mb - 0.00 in0.0 mm 0.00 in0.0 mm
12:20 AM 70.4°F21.3°C 68.6°F20.3°C 94% 4.6 mph SSW7.4 kmh SSW 6.9 mph11.1 kmh 29.56 in1001.0 mb - 0.00 in0.0 mm 0.00 in0.0 mm
12:30 AM 70.2°F21.2°C 68.4°F20.2°C 94% 4.6 mph SW7.4 kmh SW 9.2 mph14.8 kmh 29.56 in1001.0 mb - 0.00 in0.0 mm 0.00 in0.0 mm
12:40 AM 70.0°F21.1°C 68.2°F20.1°C 94% 4.6 mph SW7.4 kmh SW 5.8 mph9.3 kmh 29.55 in1000.7 mb - 0.00 in0.0 mm 0.00 in0.0 mm
12:50 AM 70.1°F21.2°C 68.6°F20.3°C 95% 5.8 mph SW9.3 kmh SW 8.1 mph13.0 kmh 29.55 in1000.7 mb - 0.00 in0.0 mm 0.00 in0.0 mm
01:00 AM 70.1°F21.2°C 68.6°F20.3°C 95% 5.8 mph SW9.3 kmh SW 9.2 mph14.8 kmh 29.55 in1000.7 mb - 0.00 in0.0 mm 0.00 in0.0 mm
01:10 AM 70.2°F21.2°C 68.7°F20.4°C 95% 5.8 mph SSW9.3 kmh SSW 8.1 mph13.0 kmh 29.54 in1000.3 mb - 0.00 in0.0 mm 0.00 in0.0 mm
01:20 AM 70.2°F21.2°C 68.7°F20.4°C 95% 4.6 mph SSW7.4 kmh SSW 6.9 mph11.1 kmh 29.53 in1000.0 mb - 0.00 in0.0 mm 0.00 in0.0 mm
01:30 AM 70.2°F21.2°C 68.7°F20.4°C 95% 4.6 mph SW7.4 kmh SW 11.5 mph18.5 kmh 29.53 in1000.0 mb - 0.00 in0.0 mm 0.00 in0.0 mm
01:40 AM 70.3°F21.3°C 68.8°F20.4°C 95% 5.8 mph SW9.3 kmh SW 9.2 mph14.8 kmh 29.52 in999.7 mb - 0.00 in0.0 mm 0.00 in0.0 mm
01:50 AM 70.3°F21.3°C 68.8°F20.4°C 95% 3.5 mph SSW5.6 kmh SSW 4.6 mph7.4 kmh 29.51 in999.3 mb - 0.00 in0.0 mm 0.00 in0.0 mm
02:00 AM 70.2°F21.2°C 68.7°F20.4°C 95% 3.5 mph SSW5.6 kmh SSW 9.2 mph14.8 kmh 29.51 in999.3 mb - 0.00 in0.0 mm 0.00 in0.0 mm
02:10 AM 70.3°F21.3°C 68.8°F20.4°C 95% 2.3 mph S3.7 kmh S 3.5 mph5.6 kmh 29.51 in999.3 mb - 0.00 in0.0 mm 0.00 in0.0 mm
02:20 AM 70.5°F21.4°C 69.0°F20.6°C 95% 3.5 mph SW5.6 kmh SW 4.6 mph7.4 kmh 29.52 in999.7 mb - 0.00 in0.0 mm 0.00 in0.0 mm
02:30 AM 70.6°F21.4°C 69.1°F20.6°C 95% 2.3 mph S3.7 kmh S 6.9 mph11.1 kmh 29.51 in999.3 mb - 0.00 in0.0 mm 0.00 in0.0 mm
02:40 AM 70.7°F21.5°C 69.2°F20.7°C 95% 3.5 mph S5.6 kmh S 5.8 mph9.3 kmh 29.52 in999.7 mb - 0.00 in0.0 mm 0.00 in0.0 mm
02:50 AM 70.0°F21.1°C 67.5°F19.7°C 92% 3.5 mph SSW5.6 kmh SSW 6.9 mph11.1 kmh 29.52 in999.7 mb - 0.00 in0.0 mm 0.00 in0.0 mm
03:00 AM 69.4°F20.8°C 67.0°F19.4°C 92% 2.3 mph SW3.7 kmh SW 5.8 mph9.3 kmh 29.52 in999.7 mb - 0.00 in0.0 mm 0.00 in0.0 mm
03:10 AM 69.4°F20.8°C 67.0°F19.4°C 92% 5.8 mph S9.3 kmh S 9.2 mph14.8 kmh 29.53 in1000.0 mb - 0.00 in0.0 mm 0.00 in0.0 mm
03:20 AM 69.5°F20.8°C 66.7°F19.3°C 91% 4.6 mph S7.4 kmh S 4.6 mph7.4 kmh 29.54 in1000.3 mb - 0.00 in0.0 mm 0.00 in0.0 mm
03:30 AM 69.0°F20.6°C 65.9°F18.8°C 90% 2.3 mph SW3.7 kmh SW 5.8 mph9.3 kmh 29.54 in1000.3 mb - 0.00 in0.0 mm 0.00 in0.0 mm
03:40 AM 68.7°F20.4°C 65.9°F18.8°C 91% 2.3 mph SW3.7 kmh SW 3.5 mph5.6 kmh 29.55 in1000.7 mb - 0.00 in0.0 mm 0.00 in0.0 mm
03:50 AM 68.7°F20.4°C 66.3°F19.1°C 92% 1.2 mph SW1.9 kmh SW 3.5 mph5.6 kmh 29.55 in1000.7 mb - 0.00 in0.0 mm 0.00 in0.0 mm
04:00 AM 69.0°F20.6°C 66.6°F19.2°C 92% 3.5 mph SW5.6 kmh SW 3.5 mph5.6 kmh 29.55 in1000.7 mb - 0.00 in0.0 mm 0.00 in0.0 mm
04:10 AM 69.5°F20.8°C 67.1°F19.5°C 92% 2.3 mph SW3.7 kmh SW 4.6 mph7.4 kmh 29.55 in1000.7 mb - 0.00 in0.0 mm 0.00 in0.0 mm
04:20 AM 69.9°F21.1°C 68.1°F20.1°C 94% 3.5 mph SW5.6 kmh SW 5.8 mph9.3 kmh 29.56 in1001.0 mb - 0.00 in0.0 mm 0.00 in0.0 mm
04:30 AM 70.5°F21.4°C 68.4°F20.2°C 93% 3.5 mph SW5.6 kmh SW 6.9 mph11.1 kmh 29.57 in1001.4 mb - 0.00 in0.0 mm 0.00 in0.0 mm
04:40 AM 71.0°F21.7°C 68.9°F20.5°C 93% 4.6 mph SW7.4 kmh SW 5.8 mph9.3 kmh 29.57 in1001.4 mb - 0.00 in0.0 mm 0.00 in0.0 mm
04:50 AM 71.3°F21.8°C 68.9°F20.5°C 92% 3.5 mph SSW5.6 kmh SSW 4.6 mph7.4 kmh 29.57 in1001.4 mb - 0.00 in0.0 mm 0.00 in0.0 mm
05:00 AM 71.2°F21.8°C 68.8°F20.4°C 92% 5.8 mph SW9.3 kmh SW 6.9 mph11.1 kmh 29.57 in1001.4 mb - 0.00 in0.0 mm 0.00 in0.0 mm
05:10 AM 71.0°F21.7°C 68.6°F20.3°C 92% 3.5 mph SW5.6 kmh SW 4.6 mph7.4 kmh 29.57 in1001.4 mb - 0.00 in0.0 mm 0.00 in0.0 mm
05:20 AM 70.5°F21.4°C 68.1°F20.1°C 92% 2.3 mph SW3.7 kmh SW 3.5 mph5.6 kmh 29.57 in1001.4 mb - 0.00 in0.0 mm 0.00 in0.0 mm
05:30 AM 70.1°F21.2°C 68.0°F20.0°C 93% 4.6 mph SW7.4 kmh SW 6.9 mph11.1 kmh 29.57 in1001.4 mb - 0.00 in0.0 mm 0.00 in0.0 mm
05:40 AM 70.1°F21.2°C 68.0°F20.0°C 93% 3.5 mph SSW5.6 kmh SSW 5.8 mph9.3 kmh 29.57 in1001.4 mb - 0.00 in0.0 mm 0.00 in0.0 mm
05:50 AM 69.8°F21.0°C 68.0°F20.0°C 94% 2.3 mph SW3.7 kmh SW 4.6 mph7.4 kmh 29.57 in1001.4 mb - 0.00 in0.0 mm 0.00 in0.0 mm
06:00 AM 69.6°F20.9°C 67.8°F19.9°C 94% 3.5 mph SW5.6 kmh SW 3.5 mph5.6 kmh 29.56 in1001.0 mb - 0.00 in0.0 mm 0.00 in0.0 mm
06:10 AM 69.5°F20.8°C 67.7°F19.8°C 94% 3.5 mph SW5.6 kmh SW 3.5 mph5.6 kmh 29.57 in1001.4 mb - 0.00 in0.0 mm 0.00 in0.0 mm
06:20 AM 69.5°F20.8°C 68.0°F20.0°C 95% 1.2 mph SW1.9 kmh SW 4.6 mph7.4 kmh 29.57 in1001.4 mb - 0.00 in0.0 mm 0.00 in0.0 mm
06:30 AM 69.9°F21.1°C 68.4°F20.2°C 95% 2.3 mph WSW3.7 kmh WSW 5.8 mph9.3 kmh 29.57 in1001.4 mb - 0.00 in0.0 mm 0.00 in0.0 mm
06:40 AM 71.2°F21.8°C 68.4°F20.2°C 91% 5.8 mph WNW9.3 kmh WNW 9.2 mph14.8 kmh 29.58 in1001.7 mb - 0.00 in0.0 mm 0.00 in0.0 mm
06:50 AM 71.3°F21.8°C 67.9°F19.9°C 89% 3.5 mph W5.6 kmh W 9.2 mph14.8 kmh 29.59 in1002.0 mb - 0.00 in0.0 mm 0.00 in0.0 mm
07:00 AM 71.1°F21.7°C 67.1°F19.5°C 87% 6.9 mph WSW11.1 kmh WSW 12.7 mph20.4 kmh 29.59 in1002.0 mb - 0.00 in0.0 mm 0.00 in0.0 mm
07:10 AM 71.3°F21.8°C 67.3°F19.6°C 87% 4.6 mph W7.4 kmh W 10.4 mph16.7 kmh 29.59 in1002.0 mb - 0.00 in0.0 mm 0.00 in0.0 mm
07:20 AM 71.4°F21.9°C 66.7°F19.3°C 85% 5.8 mph WNW9.3 kmh WNW 9.2 mph14.8 kmh 29.60 in1002.4 mb - 0.00 in0.0 mm 0.00 in0.0 mm
07:30 AM 71.8°F22.1°C 66.7°F19.3°C 84% 5.8 mph W9.3 kmh W 13.8 mph22.2 kmh 29.60 in1002.4 mb - 0.00 in0.0 mm 0.00 in0.0 mm
07:40 AM 71.3°F21.8°C 66.6°F19.2°C 85% 5.8 mph W9.3 kmh W 10.4 mph16.7 kmh 29.60 in1002.4 mb - 0.00 in0.0 mm 0.00 in0.0 mm
07:50 AM 70.8°F21.6°C 65.7°F18.7°C 84% 6.9 mph W11.1 kmh W 17.3 mph27.8 kmh 29.60 in1002.4 mb - 0.00 in0.0 mm 0.00 in0.0 mm
08:00 AM 71.8°F22.1°C 66.3°F19.1°C 83% 6.9 mph W11.1 kmh W 11.5 mph18.5 kmh 29.60 in1002.4 mb - 0.00 in0.0 mm 0.00 in0.0 mm
08:10 AM 71.6°F22.0°C 65.4°F18.6°C 81% 11.5 mph WSW18.5 kmh WSW 17.3 mph27.8 kmh 29.60 in1002.4 mb - 0.00 in0.0 mm 0.00 in0.0 mm
08:20 AM 71.6°F22.0°C 65.4°F18.6°C 81% 5.8 mph WSW9.3 kmh WSW 11.5 mph18.5 kmh 29.60 in1002.4 mb - 0.00 in0.0 mm 0.00 in0.0 mm
08:30 AM 71.7°F22.1°C 65.5°F18.6°C 81% 10.4 mph WNW16.7 kmh WNW 11.5 mph18.5 kmh 29.61 in1002.7 mb - 0.00 in0.0 mm 0.00 in0.0 mm
08:40 AM 71.8°F22.1°C 64.9°F18.3°C 79% 9.2 mph W14.8 kmh W 9.2 mph14.8 kmh 29.60 in1002.4 mb - 0.00 in0.0 mm 0.00 in0.0 mm
08:50 AM 72.3°F22.4°C 65.4°F18.6°C 79% 10.4 mph W16.7 kmh W 18.4 mph29.6 kmh 29.61 in1002.7 mb - 0.00 in0.0 mm 0.00 in0.0 mm
09:00 AM 72.4°F22.4°C 65.1°F18.4°C 78% 10.4 mph NW16.7 kmh NW 11.5 mph18.5 kmh 29.61 in1002.7 mb - 0.00 in0.0 mm 0.00 in0.0 mm
09:10 AM 73.6°F23.1°C 66.3°F19.1°C 78% 8.1 mph W13.0 kmh W 15.0 mph24.1 kmh 29.61 in1002.7 mb - 0.00 in0.0 mm 0.00 in0.0 mm
09:20 AM 73.1°F22.8°C 64.7°F18.2°C 75% 4.6 mph WNW7.4 kmh WNW 11.5 mph18.5 kmh 29.62 in1003.0 mb - 0.00 in0.0 mm 0.00 in0.0 mm
09:30 AM 73.5°F23.1°C 64.7°F18.2°C 74% 13.8 mph WNW22.2 kmh WNW 20.7 mph33.3 kmh 29.62 in1003.0 mb - 0.00 in0.0 mm 0.00 in0.0 mm
09:40 AM 73.9°F23.3°C 65.1°F18.4°C 74% 6.9 mph WNW11.1 kmh WNW 11.5 mph18.5 kmh 29.62 in1003.0 mb - 0.00 in0.0 mm 0.00 in0.0 mm
09:50 AM 74.5°F23.6°C 64.9°F18.3°C 72% 13.8 mph W22.2 kmh W 19.6 mph31.5 kmh 29.62 in1003.0 mb - 0.00 in0.0 mm 0.00 in0.0 mm
10:00 AM 73.9°F23.3°C 64.7°F18.2°C 73% 8.1 mph WNW13.0 kmh WNW 10.4 mph16.7 kmh 29.62 in1003.0 mb - 0.00 in0.0 mm 0.00 in0.0 mm
10:10 AM 73.8°F23.2°C 65.0°F18.3°C 74% 9.2 mph W14.8 kmh W 16.1 mph25.9 kmh 29.62 in1003.0 mb - 0.00 in0.0 mm 0.00 in0.0 mm
10:20 AM 74.8°F23.8°C 65.1°F18.4°C 72% 3.5 mph WNW5.6 kmh WNW 12.7 mph20.4 kmh 29.62 in1003.0 mb - 0.00 in0.0 mm 0.00 in0.0 mm
10:30 AM 74.7°F23.7°C 63.9°F17.7°C 69% 12.7 mph WNW20.4 kmh WNW 15.0 mph24.1 kmh 29.63 in1003.4 mb - 0.00 in0.0 mm 0.00 in0.0 mm
10:40 AM 74.3°F23.5°C 63.5°F17.5°C 69% 8.1 mph WNW13.0 kmh WNW 9.2 mph14.8 kmh 29.63 in1003.4 mb - 0.00 in0.0 mm 0.00 in0.0 mm
10:50 AM 75.0°F23.9°C 65.4°F18.6°C 72% 5.8 mph WSW9.3 kmh WSW 13.8 mph22.2 kmh 29.64 in1003.7 mb - 0.00 in0.0 mm 0.00 in0.0 mm
11:00 AM 75.1°F23.9°C 64.2°F17.9°C 69% 9.2 mph WNW14.8 kmh WNW 19.6 mph31.5 kmh 29.64 in1003.7 mb - 0.00 in0.0 mm 0.00 in0.0 mm
11:10 AM 75.1°F23.9°C 64.2°F17.9°C 69% 8.1 mph WNW13.0 kmh WNW 11.5 mph18.5 kmh 29.64 in1003.7 mb - 0.00 in0.0 mm 0.00 in0.0 mm
11:20 AM 75.6°F24.2°C 63.0°F17.2°C 65% 6.9 mph WNW11.1 kmh WNW 10.4 mph16.7 kmh 29.64 in1003.7 mb - 0.00 in0.0 mm 0.00 in0.0 mm
11:30 AM 75.2°F24.0°C 63.9°F17.7°C 68% 5.8 mph WSW9.3 kmh WSW 9.2 mph14.8 kmh 29.64 in1003.7 mb - 0.00 in0.0 mm 0.00 in0.0 mm
11:40 AM 76.6°F24.8°C 63.5°F17.5°C 64% 8.1 mph W13.0 kmh W 15.0 mph24.1 kmh 29.64 in1003.7 mb - 0.00 in0.0 mm 0.00 in0.0 mm
11:50 AM 76.2°F24.6°C 63.1°F17.3°C 64% 8.1 mph W13.0 kmh W 17.3 mph27.8 kmh 29.64 in1003.7 mb - 0.00 in0.0 mm 0.00 in0.0 mm
12:00 PM 77.1°F25.1°C 63.5°F17.5°C 63% 4.6 mph WNW7.4 kmh WNW 10.4 mph16.7 kmh 29.64 in1003.7 mb - 0.00 in0.0 mm 0.00 in0.0 mm
12:10 PM 76.8°F24.9°C 61.9°F16.6°C 60% 8.1 mph WNW13.0 kmh WNW 19.6 mph31.5 kmh 29.64 in1003.7 mb - 0.00 in0.0 mm 0.00 in0.0 mm
12:20 PM 76.5°F24.7°C 61.1°F16.2°C 59% 10.4 mph WNW16.7 kmh WNW 16.1 mph25.9 kmh 29.64 in1003.7 mb - 0.00 in0.0 mm 0.00 in0.0 mm
12:30 PM 77.2°F25.1°C 62.8°F17.1°C 61% 12.7 mph W20.4 kmh W 17.3 mph27.8 kmh 29.64 in1003.7 mb - 0.00 in0.0 mm 0.00 in0.0 mm
12:40 PM 76.7°F24.8°C 62.3°F16.8°C 61% 8.1 mph WNW13.0 kmh WNW 16.1 mph25.9 kmh 29.64 in1003.7 mb - 0.00 in0.0 mm 0.00 in0.0 mm
12:50 PM 76.5°F24.7°C 62.0°F16.7°C 61% 10.4 mph WSW16.7 kmh WSW 12.7 mph20.4 kmh 29.64 in1003.7 mb - 0.00 in0.0 mm 0.00 in0.0 mm
01:00 PM 76.9°F24.9°C 62.9°F17.2°C 62% 12.7 mph W20.4 kmh W 15.0 mph24.1 kmh 29.64 in1003.7 mb - 0.00 in0.0 mm 0.00 in0.0 mm
01:10 PM 76.4°F24.7°C 61.9°F16.6°C 61% 5.8 mph WNW9.3 kmh WNW 5.8 mph9.3 kmh 29.65 in1004.1 mb - 0.00 in0.0 mm 0.00 in0.0 mm
01:20 PM 77.4°F25.2°C 62.4°F16.9°C 60% 11.5 mph W18.5 kmh W 16.1 mph25.9 kmh 29.65 in1004.1 mb - 0.00 in0.0 mm 0.00 in0.0 mm
01:30 PM 76.6°F24.8°C 61.2°F16.2°C 59% 8.1 mph W13.0 kmh W 12.7 mph20.4 kmh 29.65 in1004.1 mb - 0.00 in0.0 mm 0.00 in0.0 mm
01:40 PM 76.9°F24.9°C 62.5°F16.9°C 61% 6.9 mph WSW11.1 kmh WSW 12.7 mph20.4 kmh 29.65 in1004.1 mb - 0.00 in0.0 mm 0.00 in0.0 mm
01:50 PM 77.2°F25.1°C 61.8°F16.6°C 59% 10.4 mph NW16.7 kmh NW 12.7 mph20.4 kmh 29.65 in1004.1 mb - 0.00 in0.0 mm 0.00 in0.0 mm
02:00 PM 76.0°F24.4°C 61.6°F16.4°C 61% 6.9 mph WSW11.1 kmh WSW 11.5 mph18.5 kmh 29.65 in1004.1 mb - 0.00 in0.0 mm 0.00 in0.0 mm
02:10 PM 77.9°F25.5°C 62.4°F16.9°C 59% 5.8 mph W9.3 kmh W 9.2 mph14.8 kmh 29.65 in1004.1 mb - 0.00 in0.0 mm 0.00 in0.0 mm
02:20 PM 76.0°F24.4°C 61.6°F16.4°C 61% 8.1 mph WSW13.0 kmh WSW 11.5 mph18.5 kmh 29.66 in1004.4 mb - 0.00 in0.0 mm 0.00 in0.0 mm
02:30 PM 76.9°F24.9°C 62.0°F16.7°C 60% 9.2 mph W14.8 kmh W 13.8 mph22.2 kmh 29.65 in1004.1 mb - 0.00 in0.0 mm 0.00 in0.0 mm
02:40 PM 76.1°F24.5°C 60.7°F15.9°C 59% 5.8 mph WSW9.3 kmh WSW 15.0 mph24.1 kmh 29.66 in1004.4 mb - 0.00 in0.0 mm 0.00 in0.0 mm
02:50 PM 77.3°F25.2°C 61.4°F16.3°C 58% 10.4 mph WSW16.7 kmh WSW 20.7 mph33.3 kmh 29.65 in1004.1 mb - 0.00 in0.0 mm 0.00 in0.0 mm
03:00 PM 77.4°F25.2°C 61.9°F16.6°C 59% 8.1 mph WSW13.0 kmh WSW 17.3 mph27.8 kmh 29.66 in1004.4 mb - 0.00 in0.0 mm 0.00 in0.0 mm
03:10 PM 75.9°F24.4°C 60.0°F15.6°C 58% 5.8 mph WNW9.3 kmh WNW 11.5 mph18.5 kmh 29.66 in1004.4 mb - 0.00 in0.0 mm 0.00 in0.0 mm
03:20 PM 76.0°F24.4°C 62.5°F16.9°C 63% 6.9 mph W11.1 kmh W 12.7 mph20.4 kmh 29.66 in1004.4 mb - 0.00 in0.0 mm 0.00 in0.0 mm
03:30 PM 76.5°F24.7°C 60.1°F15.6°C 57% 5.8 mph W9.3 kmh W 13.8 mph22.2 kmh 29.66 in1004.4 mb - 0.00 in0.0 mm 0.00 in0.0 mm
03:40 PM 76.5°F24.7°C 60.7°F15.9°C 58% 9.2 mph NW14.8 kmh NW 11.5 mph18.5 kmh 29.66 in1004.4 mb - 0.00 in0.0 mm 0.00 in0.0 mm
03:50 PM 74.9°F23.8°C 61.5°F16.4°C 63% 5.8 mph NW9.3 kmh NW 12.7 mph20.4 kmh 29.67 in1004.7 mb - 0.00 in0.0 mm 0.00 in0.0 mm
04:00 PM 74.8°F23.8°C 60.9°F16.1°C 62% 9.2 mph NW14.8 kmh NW 15.0 mph24.1 kmh 29.67 in1004.7 mb - 0.00 in0.0 mm 0.00 in0.0 mm
04:10 PM 74.7°F23.7°C 60.4°F15.8°C 61% 10.4 mph NW16.7 kmh NW 16.1 mph25.9 kmh 29.67 in1004.7 mb - 0.00 in0.0 mm 0.00 in0.0 mm
04:20 PM 76.5°F24.7°C 62.1°F16.7°C 61% 8.1 mph W13.0 kmh W 11.5 mph18.5 kmh 29.67 in1004.7 mb - 0.00 in0.0 mm 0.00 in0.0 mm
04:30 PM 76.0°F24.4°C 60.1°F15.6°C 58% 5.8 mph WNW9.3 kmh WNW 10.4 mph16.7 kmh 29.68 in1005.1 mb - 0.00 in0.0 mm 0.00 in0.0 mm
04:40 PM 77.0°F25.0°C 60.6°F15.9°C 57% 4.6 mph WSW7.4 kmh WSW 11.5 mph18.5 kmh 29.68 in1005.1 mb - 0.00 in0.0 mm 0.00 in0.0 mm
04:50 PM 76.9°F24.9°C 60.0°F15.6°C 56% 6.9 mph W11.1 kmh W 12.7 mph20.4 kmh 29.67 in1004.7 mb - 0.00 in0.0 mm 0.00 in0.0 mm
05:00 PM 77.3°F25.2°C 60.9°F16.1°C 57% 10.4 mph WNW16.7 kmh WNW 15.0 mph24.1 kmh 29.67 in1004.7 mb - 0.00 in0.0 mm 0.00 in0.0 mm
05:10 PM 77.2°F25.1°C 59.3°F15.2°C 54% 6.9 mph NW11.1 kmh NW 9.2 mph14.8 kmh 29.67 in1004.7 mb - 0.00 in0.0 mm 0.00 in0.0 mm
05:20 PM 77.3°F25.2°C 60.4°F15.8°C 56% 8.1 mph NW13.0 kmh NW 12.7 mph20.4 kmh 29.67 in1004.7 mb - 0.00 in0.0 mm 0.00 in0.0 mm
05:30 PM 77.1°F25.1°C 60.2°F15.7°C 56% 8.1 mph W13.0 kmh W 13.8 mph22.2 kmh 29.67 in1004.7 mb - 0.00 in0.0 mm 0.00 in0.0 mm
05:40 PM 76.7°F24.8°C 59.8°F15.4°C 56% 5.8 mph W9.3 kmh W 12.7 mph20.4 kmh 29.67 in1004.7 mb - 0.00 in0.0 mm 0.00 in0.0 mm
05:50 PM 76.4°F24.7°C 60.0°F15.6°C 57% 6.9 mph W11.1 kmh W 11.5 mph18.5 kmh 29.68 in1005.1 mb - 0.00 in0.0 mm 0.00 in0.0 mm
06:00 PM 76.6°F24.8°C 59.7°F15.4°C 56% 4.6 mph NW7.4 kmh NW 9.2 mph14.8 kmh 29.68 in1005.1 mb - 0.00 in0.0 mm 0.00 in0.0 mm
06:10 PM 76.5°F24.7°C 58.6°F14.8°C 54% 4.6 mph NW7.4 kmh NW 4.6 mph7.4 kmh 29.68 in1005.1 mb - 0.00 in0.0 mm 0.00 in0.0 mm
06:20 PM 76.4°F24.7°C 59.5°F15.3°C 56% 4.6 mph W7.4 kmh W 11.5 mph18.5 kmh 29.68 in1005.1 mb - 0.00 in0.0 mm 0.00 in0.0 mm
06:30 PM 76.5°F24.7°C 59.6°F15.3°C 56% 5.8 mph W9.3 kmh W 5.8 mph9.3 kmh 29.68 in1005.1 mb - 0.00 in0.0 mm 0.00 in0.0 mm
06:40 PM 75.5°F24.2°C 58.7°F14.8°C 56% 5.8 mph W9.3 kmh W 8.1 mph13.0 kmh 29.68 in1005.1 mb - 0.00 in0.0 mm 0.00 in0.0 mm
06:50 PM 74.5°F23.6°C 60.2°F15.7°C 61% 6.9 mph W11.1 kmh W 11.5 mph18.5 kmh 29.69 in1005.4 mb - 0.00 in0.0 mm 0.00 in0.0 mm
07:00 PM 75.7°F24.3°C 59.9°F15.5°C 58% 5.8 mph W9.3 kmh W 9.2 mph14.8 kmh 29.70 in1005.8 mb - 0.00 in0.0 mm 0.00 in0.0 mm
07:10 PM 74.5°F23.6°C 59.7°F15.4°C 60% 3.5 mph WSW5.6 kmh WSW 6.9 mph11.1 kmh 29.70 in1005.8 mb - 0.00 in0.0 mm 0.00 in0.0 mm
07:20 PM 74.2°F23.4°C 59.4°F15.2°C 60% 4.6 mph W7.4 kmh W 6.9 mph11.1 kmh 29.70 in1005.8 mb - 0.00 in0.0 mm 0.00 in0.0 mm
07:30 PM 73.8°F23.2°C 59.0°F15.0°C 60% 4.6 mph W7.4 kmh W 6.9 mph11.1 kmh 29.70 in1005.8 mb - 0.00 in0.0 mm 0.00 in0.0 mm
07:40 PM 72.9°F22.7°C 59.6°F15.3°C 63% 2.3 mph WSW3.7 kmh WSW 3.5 mph5.6 kmh 29.71 in1006.1 mb - 0.00 in0.0 mm 0.00 in0.0 mm
07:50 PM 72.8°F22.7°C 59.5°F15.3°C 63% 2.3 mph W3.7 kmh W 3.5 mph5.6 kmh 29.71 in1006.1 mb - 0.00 in0.0 mm 0.00 in0.0 mm
08:00 PM 72.3°F22.4°C 59.8°F15.4°C 65% 2.3 mph WSW3.7 kmh WSW 8.1 mph13.0 kmh 29.71 in1006.1 mb - 0.00 in0.0 mm 0.00 in0.0 mm
08:10 PM 72.2°F22.3°C 59.8°F15.4°C 65% 1.2 mph WSW1.9 kmh WSW 3.5 mph5.6 kmh 29.71 in1006.1 mb - 0.00 in0.0 mm 0.00 in0.0 mm
08:20 PM 71.6°F22.0°C 59.6°F15.3°C 66% 2.3 mph WSW3.7 kmh WSW 4.6 mph7.4 kmh 29.71 in1006.1 mb - 0.00 in0.0 mm 0.00 in0.0 mm
08:30 PM 71.5°F21.9°C 59.6°F15.3°C 66% 3.5 mph WSW5.6 kmh WSW 4.6 mph7.4 kmh 29.71 in1006.1 mb - 0.00 in0.0 mm 0.00 in0.0 mm
08:40 PM 71.3°F21.8°C 59.3°F15.2°C 66% 1.2 mph W1.9 kmh W 3.5 mph5.6 kmh 29.71 in1006.1 mb - 0.00 in0.0 mm 0.00 in0.0 mm
08:50 PM 70.8°F21.6°C 59.3°F15.2°C 67% 3.5 mph W5.6 kmh W 4.6 mph7.4 kmh 29.71 in1006.1 mb - 0.00 in0.0 mm 0.00 in0.0 mm
09:00 PM 70.2°F21.2°C 59.1°F15.1°C 68% 3.5 mph WSW5.6 kmh WSW 5.8 mph9.3 kmh 29.72 in1006.4 mb - 0.00 in0.0 mm 0.00 in0.0 mm
09:10 PM 70.0°F21.1°C 59.4°F15.2°C 69% 2.3 mph W3.7 kmh W 5.8 mph9.3 kmh 29.72 in1006.4 mb - 0.00 in0.0 mm 0.00 in0.0 mm
09:20 PM 70.4°F21.3°C 58.9°F14.9°C 67% 3.5 mph W5.6 kmh W 3.5 mph5.6 kmh 29.72 in1006.4 mb - 0.00 in0.0 mm 0.00 in0.0 mm
09:30 PM 70.5°F21.4°C 59.0°F15.0°C 67% 2.3 mph W3.7 kmh W 5.8 mph9.3 kmh 29.72 in1006.4 mb - 0.00 in0.0 mm 0.00 in0.0 mm
09:40 PM 70.3°F21.3°C 58.8°F14.9°C 67% 4.6 mph W7.4 kmh W 5.8 mph9.3 kmh 29.73 in1006.8 mb - 0.00 in0.0 mm 0.00 in0.0 mm
09:50 PM 70.0°F21.1°C 58.9°F14.9°C 68% 4.6 mph WSW7.4 kmh WSW 8.1 mph13.0 kmh 29.73 in1006.8 mb - 0.00 in0.0 mm 0.00 in0.0 mm
10:00 PM 69.7°F20.9°C 59.0°F15.0°C 69% 3.5 mph W5.6 kmh W 5.8 mph9.3 kmh 29.73 in1006.8 mb - 0.00 in0.0 mm 0.00 in0.0 mm
10:10 PM 68.9°F20.5°C 58.7°F14.8°C 70% 2.3 mph SW3.7 kmh SW 4.6 mph7.4 kmh 29.73 in1006.8 mb - 0.00 in0.0 mm 0.00 in0.0 mm
10:20 PM 68.6°F20.3°C 58.8°F14.9°C 71% 2.3 mph WSW3.7 kmh WSW 3.5 mph5.6 kmh 29.73 in1006.8 mb - 0.00 in0.0 mm 0.00 in0.0 mm
10:30 PM 68.6°F20.3°C 58.8°F14.9°C 71% 3.5 mph W5.6 kmh W 6.9 mph11.1 kmh 29.73 in1006.8 mb - 0.00 in0.0 mm 0.00 in0.0 mm
10:40 PM 67.9°F19.9°C 58.9°F14.9°C 73% 3.5 mph SW5.6 kmh SW 6.9 mph11.1 kmh 29.73 in1006.8 mb - 0.00 in0.0 mm 0.00 in0.0 mm
10:50 PM 67.4°F19.7°C 58.8°F14.9°C 74% 2.3 mph W3.7 kmh W 3.5 mph5.6 kmh 29.74 in1007.1 mb - 0.00 in0.0 mm 0.00 in0.0 mm
11:00 PM 66.4°F19.1°C 58.6°F14.8°C 76% 1.2 mph W1.9 kmh W 2.3 mph3.7 kmh 29.74 in1007.1 mb - 0.00 in0.0 mm 0.00 in0.0 mm
11:10 PM 66.1°F18.9°C 58.7°F14.8°C 77% 1.2 mph W1.9 kmh W 2.3 mph3.7 kmh 29.74 in1007.1 mb - 0.00 in0.0 mm 0.00 in0.0 mm
11:20 PM 65.4°F18.6°C 58.4°F14.7°C 78% 1.2 mph W1.9 kmh W 2.3 mph3.7 kmh 29.75 in1007.5 mb - 0.00 in0.0 mm 0.00 in0.0 mm
11:30 PM 64.5°F18.1°C 58.8°F14.9°C 82% 1.2 mph W1.9 kmh W 2.3 mph3.7 kmh 29.75 in1007.5 mb - 0.00 in0.0 mm 0.00 in0.0 mm
11:40 PM 64.0°F17.8°C 58.7°F14.8°C 83% 2.3 mph SW3.7 kmh SW 3.5 mph5.6 kmh 29.76 in1007.8 mb - 0.00 in0.0 mm 0.00 in0.0 mm
11:50 PM 64.3°F17.9°C 59.0°F15.0°C 83% 1.2 mph SW1.9 kmh SW 3.5 mph5.6 kmh 29.76 in1007.8 mb - 0.00 in0.0 mm 0.00 in0.0 mm